createdAt,value
2022-08-03T00:01:30.944Z,100.00
2022-08-03T00:03:57.599Z,100.00
2022-08-03T00:06:24.306Z,100.00
2022-08-03T00:08:51.131Z,100.00
2022-08-03T00:11:18.146Z,100.00
2022-08-03T00:13:44.918Z,100.00
2022-08-03T00:16:11.787Z,100.00
2022-08-03T00:18:38.407Z,100.00
2022-08-03T00:21:05.582Z,100.00
2022-08-03T00:23:51.146Z,100.00
2022-08-03T00:26:20.523Z,100.00
2022-08-03T00:28:47.425Z,100.00
2022-08-03T00:31:14.170Z,100.00
2022-08-03T00:33:58.056Z,100.00
2022-08-03T00:36:26.415Z,100.00
2022-08-03T00:38:53.041Z,100.00
2022-08-03T00:41:19.740Z,100.00
2022-08-03T00:43:47.459Z,100.00
2022-08-03T00:46:18.989Z,100.00
2022-08-03T00:48:52.124Z,100.00
2022-08-03T00:51:20.738Z,100.00
2022-08-03T00:53:47.792Z,100.00
2022-08-03T00:56:15.532Z,100.00
2022-08-03T00:58:44.760Z,100.00
2022-08-03T01:01:12.451Z,100.00
2022-08-03T01:03:40.024Z,100.00
2022-08-03T01:06:43.138Z,100.00
2022-08-03T01:09:23.648Z,100.00
2022-08-03T01:12:01.844Z,100.00
2022-08-03T01:14:53.539Z,100.00
2022-08-03T01:17:35.850Z,100.00
2022-08-03T01:20:11.869Z,100.00
2022-08-03T01:23:10.747Z,100.00
2022-08-03T01:26:06.050Z,100.00
2022-08-03T01:29:04.227Z,100.00
2022-08-03T01:32:59.599Z,100.00
2022-08-03T01:34:39.487Z,100.00
2022-08-03T01:37:09.279Z,100.00
2022-08-03T01:39:40.614Z,100.00
2022-08-03T01:42:11.547Z,100.00
2022-08-03T01:44:41.497Z,100.00
2022-08-03T01:47:10.149Z,100.00
2022-08-03T01:49:43.274Z,100.00
2022-08-03T01:52:12.589Z,100.00
2022-08-03T01:54:45.342Z,100.00
2022-08-03T01:57:14.271Z,100.00
2022-08-03T01:59:43.204Z,100.00
2022-08-03T02:02:29.143Z,100.00
2022-08-03T02:05:01.439Z,100.00
2022-08-03T02:07:30.299Z,100.00
2022-08-03T02:09:59.093Z,100.00
2022-08-03T02:12:28.507Z,100.00
2022-08-03T02:14:56.806Z,100.00
2022-08-03T02:17:39.647Z,100.00
2022-08-03T02:20:10.839Z,100.00
2022-08-03T02:22:40.809Z,100.00
2022-08-03T02:25:09.899Z,100.00
2022-08-03T02:27:43.635Z,100.00
2022-08-03T02:30:12.404Z,100.00
2022-08-03T02:32:41.264Z,100.00
2022-08-03T02:35:12.521Z,100.00
2022-08-03T02:37:49.531Z,100.00
2022-08-03T02:40:19.022Z,100.00
2022-08-03T02:42:47.054Z,100.00
2022-08-03T02:45:16.561Z,100.00
2022-08-03T02:47:53.370Z,100.00
2022-08-03T02:50:24.411Z,100.00
2022-08-03T02:52:52.837Z,100.00
2022-08-03T02:55:22.047Z,100.00
2022-08-03T02:57:49.830Z,100.00
2022-08-03T03:00:27.337Z,100.00
2022-08-03T03:02:58.292Z,100.00
2022-08-03T03:05:52.794Z,100.00
2022-08-03T03:08:18.750Z,100.00
2022-08-03T03:10:48.347Z,100.00
2022-08-03T03:13:22.282Z,100.00
2022-08-03T03:15:49.754Z,100.00
2022-08-03T03:18:21.895Z,100.00
2022-08-03T03:20:50.461Z,100.00
2022-08-03T03:23:17.830Z,100.00
2022-08-03T03:25:46.754Z,100.00
2022-08-03T03:28:13.748Z,100.00
2022-08-03T03:30:40.567Z,100.00
2022-08-03T03:33:07.635Z,100.00
2022-08-03T03:35:38.925Z,100.00
2022-08-03T03:38:07.132Z,100.00
2022-08-03T03:40:35.824Z,100.00
2022-08-03T03:43:03.856Z,100.00
2022-08-03T03:45:31.046Z,100.00
2022-08-03T03:48:00.092Z,100.00
2022-08-03T03:50:28.070Z,100.00
2022-08-03T03:52:54.679Z,100.00
2022-08-03T03:55:21.471Z,100.00
2022-08-03T03:57:48.134Z,100.00
2022-08-03T04:00:16.625Z,100.00
2022-08-03T04:02:43.813Z,100.00
2022-08-03T04:05:29.288Z,100.00
2022-08-03T04:08:24.600Z,100.00
2022-08-03T04:11:30.111Z,100.00
2022-08-03T04:14:16.884Z,100.00
2022-08-03T04:16:49.177Z,100.00
2022-08-03T04:19:23.613Z,100.00
2022-08-03T04:21:57.251Z,100.00
2022-08-03T04:24:27.170Z,100.00
2022-08-03T04:26:55.750Z,100.00
2022-08-03T04:29:23.960Z,100.00
2022-08-03T04:31:51.912Z,100.00
2022-08-03T04:34:18.675Z,100.00
2022-08-03T04:36:50.082Z,100.00
2022-08-03T04:39:23.000Z,100.00
2022-08-03T04:42:07.401Z,100.00
2022-08-03T04:44:41.703Z,100.00
2022-08-03T04:47:08.884Z,100.00
2022-08-03T04:49:38.763Z,100.00
2022-08-03T04:52:08.247Z,100.00
2022-08-03T04:54:50.283Z,100.00
2022-08-03T04:57:22.749Z,100.00
2022-08-03T05:00:02.138Z,100.00
2022-08-03T05:02:31.854Z,100.00
2022-08-03T05:04:58.805Z,100.00
2022-08-03T05:07:25.642Z,100.00
2022-08-03T05:10:01.573Z,100.00
2022-08-03T05:12:32.875Z,100.00
2022-08-03T05:15:00.667Z,100.00
2022-08-03T05:17:28.295Z,100.00
2022-08-03T05:19:55.142Z,100.00
2022-08-03T05:22:22.242Z,100.00
2022-08-03T05:24:49.106Z,100.00
2022-08-03T05:27:21.711Z,100.00
2022-08-03T05:29:50.168Z,100.00
2022-08-03T05:32:18.049Z,100.00
2022-08-03T05:34:45.120Z,100.00
2022-08-03T05:37:11.900Z,100.00
2022-08-03T05:39:38.606Z,100.00
2022-08-03T05:42:05.367Z,100.00
2022-08-03T05:44:32.159Z,100.00
2022-08-03T05:46:59.383Z,100.00
2022-08-03T05:49:26.176Z,100.00
2022-08-03T05:52:00.439Z,100.00
2022-08-03T05:54:56.107Z,100.00
2022-08-03T05:57:23.775Z,100.00
2022-08-03T05:59:57.392Z,100.00
2022-08-03T06:02:27.119Z,100.00
2022-08-03T06:04:54.578Z,100.00
2022-08-03T06:07:21.282Z,100.00
2022-08-03T06:10:33.733Z,100.00
2022-08-03T06:12:37.708Z,100.00
2022-08-03T06:15:05.290Z,100.00
2022-08-03T06:17:37.593Z,100.00
2022-08-03T06:20:05.940Z,100.00
2022-08-03T06:22:32.595Z,100.00
2022-08-03T06:25:03.430Z,100.00
2022-08-03T06:27:37.284Z,100.00
2022-08-03T06:30:05.246Z,100.00
2022-08-03T06:32:39.055Z,100.00
2022-08-03T06:35:07.453Z,100.00
2022-08-03T06:37:50.788Z,100.00
2022-08-03T06:40:28.547Z,100.00
2022-08-03T06:42:56.529Z,100.00
2022-08-03T06:45:23.557Z,100.00
2022-08-03T06:48:01.933Z,100.00
2022-08-03T06:50:28.814Z,100.00
2022-08-03T06:52:55.645Z,100.00
2022-08-03T06:55:22.391Z,100.00
2022-08-03T06:57:49.171Z,100.00
2022-08-03T07:00:16.211Z,97.76
2022-08-03T07:02:42.937Z,95.35
2022-08-03T07:05:10.588Z,88.69
2022-08-03T07:07:37.841Z,88.52
2022-08-03T07:10:05.790Z,86.90
2022-08-03T07:12:33.806Z,83.59
2022-08-03T07:15:02.990Z,83.19
2022-08-03T07:17:34.138Z,80.43
2022-08-03T07:20:04.256Z,82.01
2022-08-03T07:22:31.230Z,78.18
2022-08-03T07:24:58.045Z,79.72
2022-08-03T07:27:26.957Z,75.81
2022-08-03T07:29:54.161Z,73.05
2022-08-03T07:32:20.890Z,74.75
2022-08-03T07:34:47.566Z,72.48
2022-08-03T07:37:14.252Z,69.58
2022-08-03T07:39:40.899Z,70.43
2022-08-03T07:42:07.626Z,67.99
2022-08-03T07:44:34.295Z,68.21
2022-08-03T07:47:03.309Z,64.65
2022-08-03T07:49:30.643Z,63.65
2022-08-03T07:52:16.817Z,62.02
2022-08-03T07:54:43.925Z,60.26
2022-08-03T07:57:10.638Z,59.84
2022-08-03T07:59:56.955Z,59.96
2022-08-03T08:02:26.816Z,58.18
2022-08-03T08:04:53.561Z,57.15
2022-08-03T08:07:20.710Z,56.61
2022-08-03T08:09:47.476Z,55.16
2022-08-03T08:12:15.558Z,54.95
2022-08-03T08:14:45.638Z,55.40
2022-08-03T08:17:13.215Z,55.32
2022-08-03T08:19:41.475Z,54.60
2022-08-03T08:22:13.482Z,54.29
2022-08-03T08:24:44.554Z,55.17
2022-08-03T08:27:12.021Z,55.12
2022-08-03T08:29:47.777Z,54.86
2022-08-03T08:32:22.064Z,52.45
2022-08-03T08:34:48.756Z,52.02
2022-08-03T08:37:15.455Z,51.27
2022-08-03T08:39:42.153Z,51.72
2022-08-03T08:42:10.316Z,52.81
2022-08-03T08:44:57.556Z,51.91
2022-08-03T08:47:50.994Z,50.63
2022-08-03T08:50:28.151Z,48.97
2022-08-03T08:52:56.241Z,49.27
2022-08-03T08:55:23.977Z,48.44
2022-08-03T08:57:55.396Z,49.11
2022-08-03T09:00:22.183Z,48.72
2022-08-03T09:02:49.181Z,47.44
2022-08-03T09:05:27.833Z,48.45
2022-08-03T09:08:05.576Z,48.23
2022-08-03T09:10:34.754Z,47.50
2022-08-03T09:13:01.558Z,47.08
2022-08-03T09:15:32.132Z,46.19
2022-08-03T09:18:00.954Z,43.69
2022-08-03T09:20:33.488Z,44.38
2022-08-03T09:23:19.047Z,43.49
2022-08-03T09:25:58.242Z,43.34
2022-08-03T09:29:00.204Z,43.59
2022-08-03T09:31:36.659Z,42.59
2022-08-03T09:34:09.263Z,41.43
2022-08-03T09:36:45.600Z,42.44
2022-08-03T09:39:15.947Z,43.25
2022-08-03T09:41:48.867Z,43.37
2022-08-03T09:44:16.210Z,43.29
2022-08-03T09:46:55.802Z,41.91
2022-08-03T09:49:23.126Z,41.33
2022-08-03T09:52:32.735Z,41.45
2022-08-03T09:54:37.226Z,40.73
2022-08-03T09:57:04.330Z,40.30
2022-08-03T09:59:32.603Z,40.26
2022-08-03T10:02:00.661Z,39.03
2022-08-03T10:04:27.868Z,40.52
2022-08-03T10:07:09.223Z,41.54
2022-08-03T10:09:37.476Z,40.79
2022-08-03T10:12:12.154Z,40.58
2022-08-03T10:14:41.717Z,41.01
2022-08-03T10:17:09.809Z,39.75
2022-08-03T10:19:36.683Z,39.05
2022-08-03T10:22:10.438Z,38.82
2022-08-03T10:24:39.244Z,39.14
2022-08-03T10:27:07.448Z,38.87
2022-08-03T10:29:38.946Z,40.21
2022-08-03T10:32:19.001Z,39.77
2022-08-03T10:34:47.090Z,40.82
2022-08-03T10:37:16.118Z,40.89
2022-08-03T10:39:54.572Z,40.56
2022-08-03T10:42:23.805Z,39.18
2022-08-03T10:45:16.964Z,38.09
2022-08-03T10:47:44.489Z,37.47
2022-08-03T10:50:14.229Z,37.31
2022-08-03T10:53:03.801Z,38.72
2022-08-03T10:55:52.061Z,38.74
2022-08-03T10:58:37.418Z,37.81
2022-08-03T11:02:01.414Z,38.26
2022-08-03T11:04:29.834Z,37.00
2022-08-03T11:07:15.733Z,37.17
2022-08-03T11:09:48.457Z,37.61
2022-08-03T11:12:33.340Z,38.22
2022-08-03T11:15:04.625Z,37.05
2022-08-03T11:17:46.298Z,36.58
2022-08-03T11:21:07.037Z,35.79
2022-08-03T11:24:03.131Z,35.90
2022-08-03T11:26:33.032Z,35.88
2022-08-03T11:29:31.432Z,36.24
2022-08-03T11:32:40.117Z,35.83
2022-08-03T11:35:14.713Z,36.54
2022-08-03T11:38:03.058Z,36.42
2022-08-03T11:40:40.618Z,35.09
2022-08-03T11:43:26.751Z,34.46
2022-08-03T11:46:07.061Z,34.50
2022-08-03T11:48:33.627Z,34.83
2022-08-03T11:51:01.285Z,34.47
2022-08-03T11:53:28.724Z,34.69
2022-08-03T11:55:59.281Z,34.58
2022-08-03T11:59:02.706Z,33.72
2022-08-03T12:01:24.145Z,33.34
2022-08-03T12:03:51.962Z,34.21
2022-08-03T12:06:19.413Z,33.63
2022-08-03T12:08:47.074Z,33.03
2022-08-03T12:11:17.846Z,33.41
2022-08-03T12:14:45.072Z,32.82
2022-08-03T12:16:35.465Z,33.34
2022-08-03T12:19:04.937Z,33.03
2022-08-03T12:21:32.199Z,33.17
2022-08-03T12:24:04.236Z,32.44
2022-08-03T12:26:44.162Z,32.61
2022-08-03T12:29:23.042Z,32.12
2022-08-03T12:31:49.699Z,31.91
2022-08-03T12:34:16.447Z,32.39
2022-08-03T12:36:56.112Z,33.08
2022-08-03T12:39:25.181Z,32.39
2022-08-03T12:41:55.949Z,32.33
2022-08-03T12:44:34.419Z,32.92
2022-08-03T12:47:03.370Z,32.38
2022-08-03T12:49:45.581Z,32.19
2022-08-03T12:52:12.553Z,32.46
2022-08-03T12:54:39.303Z,31.60
2022-08-03T12:57:08.535Z,31.60
2022-08-03T12:59:53.109Z,31.88
2022-08-03T13:02:23.558Z,31.07
2022-08-03T13:04:52.717Z,31.70
2022-08-03T13:07:20.215Z,31.91
2022-08-03T13:09:48.008Z,31.80
2022-08-03T13:12:21.437Z,32.42
2022-08-03T13:14:54.823Z,32.07
2022-08-03T13:17:21.893Z,32.47
2022-08-03T13:19:49.514Z,32.25
2022-08-03T13:22:18.765Z,32.79
2022-08-03T13:24:47.886Z,32.62
2022-08-03T13:28:01.377Z,32.10
2022-08-03T13:30:01.756Z,32.42
2022-08-03T13:32:28.464Z,33.03
2022-08-03T13:34:55.151Z,32.64
2022-08-03T13:37:22.154Z,32.33
2022-08-03T13:39:59.617Z,31.72
2022-08-03T13:42:29.428Z,32.19
2022-08-03T13:44:56.342Z,32.24
2022-08-03T13:47:23.315Z,32.33
2022-08-03T13:49:54.348Z,31.86
2022-08-03T13:52:34.419Z,31.46
2022-08-03T13:55:05.716Z,31.20
2022-08-03T13:58:05.941Z,31.60
2022-08-03T14:00:27.776Z,32.29
2022-08-03T14:03:16.431Z,32.91
2022-08-03T14:05:44.145Z,33.00
2022-08-03T14:08:12.037Z,32.71
2022-08-03T14:10:44.520Z,32.93
2022-08-03T14:13:12.856Z,32.74
2022-08-03T14:15:43.756Z,32.93
2022-08-03T14:18:28.825Z,33.14
2022-08-03T14:21:06.335Z,32.93
2022-08-03T14:23:35.142Z,33.06
2022-08-03T14:26:01.835Z,32.61
2022-08-03T14:28:28.651Z,32.48
2022-08-03T14:30:56.180Z,32.67
2022-08-03T14:33:23.430Z,32.87
2022-08-03T14:35:51.271Z,33.09
2022-08-03T14:38:18.743Z,33.70
2022-08-03T14:40:46.274Z,34.00
2022-08-03T14:43:13.981Z,33.74
2022-08-03T14:45:41.276Z,33.17
2022-08-03T14:50:33.074Z,33.59
2022-08-03T14:50:55.346Z,33.38
2022-08-03T14:53:22.677Z,33.34
2022-08-03T14:55:51.247Z,33.21
2022-08-03T14:58:27.672Z,32.72
2022-08-03T15:00:55.475Z,32.65
2022-08-03T15:03:24.618Z,33.17
2022-08-03T15:06:10.298Z,32.33
2022-08-03T15:08:36.975Z,32.96
2022-08-03T15:11:03.755Z,32.92
2022-08-03T15:13:31.725Z,33.18
2022-08-03T15:15:58.341Z,33.95
2022-08-03T15:18:25.001Z,33.62
2022-08-03T15:20:51.723Z,33.18
2022-08-03T15:23:18.690Z,33.40
2022-08-03T15:26:29.293Z,34.06
2022-08-03T15:28:33.280Z,33.82
2022-08-03T15:31:00.550Z,33.50
2022-08-03T15:33:27.840Z,34.18
2022-08-03T15:35:54.509Z,33.99
2022-08-03T15:38:25.627Z,34.21
2022-08-03T15:40:56.890Z,34.20
2022-08-03T15:43:23.785Z,34.27
2022-08-03T15:46:12.752Z,34.66
2022-08-03T15:48:37.695Z,34.10
2022-08-03T15:51:05.205Z,34.64
2022-08-03T15:53:32.280Z,34.40
2022-08-03T15:55:59.784Z,34.66
2022-08-03T15:59:10.751Z,35.01
2022-08-03T16:01:19.771Z,34.77
2022-08-03T16:03:47.069Z,35.03
2022-08-03T16:06:13.948Z,35.24
2022-08-03T16:08:40.642Z,34.76
2022-08-03T16:11:07.456Z,34.18
2022-08-03T16:14:13.460Z,31.98
2022-08-03T16:16:20.852Z,28.48
2022-08-03T16:18:47.539Z,26.97
2022-08-03T16:21:16.974Z,26.08
2022-08-03T16:23:47.097Z,25.47
2022-08-03T16:26:14.224Z,25.45
2022-08-03T16:28:40.963Z,24.79
2022-08-03T16:31:09.004Z,24.72
2022-08-03T16:33:36.031Z,24.07
2022-08-03T16:36:03.058Z,23.88
2022-08-03T16:38:30.457Z,24.08
2022-08-03T16:40:57.151Z,23.70
2022-08-03T16:43:24.662Z,23.63
2022-08-03T16:45:51.817Z,23.81
2022-08-03T16:48:18.813Z,23.39
2022-08-03T16:50:46.076Z,23.83
2022-08-03T16:53:16.746Z,23.59
2022-08-03T16:56:10.071Z,23.20
2022-08-03T16:58:42.366Z,23.80
2022-08-03T17:01:22.626Z,24.18
2022-08-03T17:04:02.283Z,23.68
2022-08-03T17:06:34.081Z,24.10
2022-08-03T17:09:03.929Z,23.99
2022-08-03T17:11:37.673Z,23.81
2022-08-03T17:14:09.216Z,23.82
2022-08-03T17:16:38.461Z,23.81
2022-08-03T17:19:07.166Z,23.85
2022-08-03T17:21:39.114Z,23.40
2022-08-03T17:24:19.913Z,23.68
2022-08-03T17:26:51.043Z,23.46
2022-08-03T17:29:23.094Z,23.78
2022-08-03T17:31:53.335Z,23.26
2022-08-03T17:34:21.024Z,23.51
2022-08-03T17:37:27.147Z,23.24
2022-08-03T17:39:58.639Z,23.52
2022-08-03T17:42:30.542Z,24.06
2022-08-03T17:45:02.035Z,23.25
2022-08-03T17:47:42.165Z,23.77
2022-08-03T17:50:24.085Z,23.68
2022-08-03T17:53:07.125Z,26.43
2022-08-03T17:56:38.600Z,29.39
2022-08-03T17:59:51.400Z,32.11
2022-08-03T18:02:48.974Z,33.12
2022-08-03T18:05:21.771Z,33.51
2022-08-03T18:07:59.369Z,34.40
2022-08-03T18:10:34.269Z,34.55
2022-08-03T18:13:15.253Z,35.47
2022-08-03T18:16:02.240Z,35.67
2022-08-03T18:18:40.454Z,36.23
2022-08-03T18:22:02.273Z,36.53
2022-08-03T18:24:32.394Z,36.63
2022-08-03T18:27:02.379Z,36.82
2022-08-03T18:29:30.536Z,37.03
2022-08-03T18:32:06.074Z,37.62
2022-08-03T18:34:36.792Z,37.87
2022-08-03T18:37:08.437Z,38.00
2022-08-03T18:39:50.171Z,38.34
2022-08-03T18:42:25.818Z,39.95
2022-08-03T18:44:56.245Z,41.73
2022-08-03T18:47:50.917Z,43.37
2022-08-03T18:50:36.724Z,44.58
2022-08-03T18:53:19.346Z,45.49
2022-08-03T18:56:01.888Z,45.85
2022-08-03T18:59:04.940Z,46.84
2022-08-03T19:01:58.332Z,47.06
2022-08-03T19:04:46.042Z,47.62
2022-08-03T19:07:17.753Z,47.87
2022-08-03T19:09:54.312Z,48.16
2022-08-03T19:12:50.262Z,48.90
2022-08-03T19:15:36.086Z,49.00
2022-08-03T19:18:33.175Z,49.56
2022-08-03T19:21:01.049Z,50.78
2022-08-03T19:23:33.957Z,50.65
2022-08-03T19:26:02.471Z,50.87
2022-08-03T19:28:30.267Z,51.09
2022-08-03T19:31:02.686Z,51.13
2022-08-03T19:33:56.029Z,51.06
2022-08-03T19:36:26.340Z,50.84
2022-08-03T19:38:57.536Z,50.97
2022-08-03T19:41:31.104Z,50.80
2022-08-03T19:44:11.498Z,51.56
2022-08-03T19:46:54.044Z,51.70
2022-08-03T19:50:04.736Z,51.77
2022-08-03T19:52:14.674Z,52.08
2022-08-03T19:54:53.970Z,52.58
2022-08-03T19:57:24.615Z,52.51
2022-08-03T19:59:53.142Z,53.71
2022-08-03T20:02:26.400Z,54.70
2022-08-03T20:04:57.772Z,55.40
2022-08-03T20:07:29.308Z,55.53
2022-08-03T20:09:59.556Z,57.84
2022-08-03T20:12:29.558Z,59.01
2022-08-03T20:14:57.718Z,59.23
2022-08-03T20:17:31.274Z,59.11
2022-08-03T20:20:12.792Z,58.85
2022-08-03T20:22:43.291Z,59.46
2022-08-03T20:25:16.256Z,60.54
2022-08-03T20:28:06.752Z,61.79
2022-08-03T20:30:35.573Z,61.78
2022-08-03T20:33:02.396Z,62.02
2022-08-03T20:35:30.320Z,61.81
2022-08-03T20:37:58.075Z,62.26
2022-08-03T20:40:27.450Z,62.36
2022-08-03T20:42:55.318Z,63.25
2022-08-03T20:45:59.734Z,64.52
2022-08-03T20:48:10.257Z,64.71
2022-08-03T20:50:39.845Z,64.93
2022-08-03T20:53:07.789Z,65.56
2022-08-03T20:55:48.231Z,66.80
2022-08-03T20:58:27.053Z,66.73
2022-08-03T21:00:55.709Z,67.71
2022-08-03T21:03:22.425Z,68.93
2022-08-03T21:05:53.666Z,69.59
2022-08-03T21:08:22.485Z,69.85
2022-08-03T21:10:52.385Z,70.59
2022-08-03T21:13:42.029Z,72.03
2022-08-03T21:16:14.987Z,72.59
2022-08-03T21:18:49.478Z,72.87
2022-08-03T21:21:19.171Z,73.59
2022-08-03T21:23:49.889Z,74.78
2022-08-03T21:26:21.852Z,75.81
2022-08-03T21:28:50.712Z,75.75
2022-08-03T21:31:25.763Z,76.45
2022-08-03T21:33:56.534Z,76.46
2022-08-03T21:36:25.169Z,76.76
2022-08-03T21:38:56.609Z,77.49
2022-08-03T21:41:25.896Z,79.65
2022-08-03T21:43:52.630Z,83.27
2022-08-03T21:46:20.289Z,84.67
2022-08-03T21:48:51.167Z,85.98
2022-08-03T21:51:20.046Z,86.74
2022-08-03T21:54:02.394Z,85.60
2022-08-03T21:56:41.672Z,85.06
2022-08-03T21:59:16.416Z,85.48
2022-08-03T22:01:45.523Z,84.96
2022-08-03T22:04:53.305Z,84.61
2022-08-03T22:07:07.688Z,84.81
2022-08-03T22:09:35.395Z,84.93
2022-08-03T22:12:02.164Z,84.63
2022-08-03T22:14:29.840Z,85.77
2022-08-03T22:16:56.661Z,87.79
2022-08-03T22:19:23.327Z,89.36
2022-08-03T22:21:50.330Z,91.53
2022-08-03T22:24:23.902Z,94.28
2022-08-03T22:27:10.061Z,92.94
2022-08-03T22:29:39.692Z,93.51
2022-08-03T22:32:06.700Z,98.20
2022-08-03T22:34:36.998Z,97.42
2022-08-03T22:37:04.982Z,100.00
2022-08-03T22:39:32.266Z,99.55
2022-08-03T22:41:59.950Z,100.00
2022-08-03T22:44:27.670Z,100.00
2022-08-03T22:46:55.560Z,100.00
2022-08-03T22:49:23.690Z,100.00
2022-08-03T22:51:53.660Z,100.00
2022-08-03T22:54:20.878Z,100.00
2022-08-03T22:56:49.215Z,100.00
2022-08-03T22:59:40.859Z,100.00
2022-08-03T23:02:20.021Z,100.00
2022-08-03T23:04:56.976Z,100.00
2022-08-03T23:07:32.763Z,98.73
2022-08-03T23:10:01.363Z,98.75
2022-08-03T23:12:30.347Z,98.75
2022-08-03T23:15:01.584Z,99.57
2022-08-03T23:17:30.944Z,99.64
2022-08-03T23:20:04.332Z,99.56
2022-08-03T23:22:34.778Z,99.08
2022-08-03T23:25:03.837Z,98.69
2022-08-03T23:27:32.687Z,97.09
2022-08-03T23:30:01.244Z,97.19
2022-08-03T23:32:29.913Z,97.99
2022-08-03T23:35:18.428Z,99.48
2022-08-03T23:38:10.729Z,100.00
2022-08-03T23:40:33.902Z,100.00
2022-08-03T23:43:02.659Z,100.00
2022-08-03T23:45:34.684Z,100.00
2022-08-03T23:48:01.438Z,100.00
2022-08-03T23:50:32.260Z,100.00
2022-08-03T23:53:21.142Z,100.00
2022-08-03T23:56:33.623Z,100.00
2022-08-03T23:59:05.985Z,100.00
